Time;durP1;ratioP1;P1;durP2;ratioP2;P2;SDS_P1;SDS_P2;PMS_P1;PMS_P2;Temp;Humidity;BMP_temperature;BMP_pressure;BME280_temperature;BME280_humidity;BME280_pressure;Samples;Min_cycle;Max_cycle;Signal;HPM_P1;HPM_P2
2021/04/22 00:00:53;;;;;;;19.53;12.90;;;8.80;99.90;;;9.60;100.00;98387.28;5051446;28;20554;-81
2021/04/22 00:03:25;;;;;;;20.10;12.33;;;8.70;99.90;;;9.63;100.00;98381.72;5055266;28;20542;-80
2021/04/22 00:05:53;;;;;;;16.13;10.43;;;8.80;99.90;;;9.54;100.00;98387.97;5049374;28;21040;-81
2021/04/22 00:08:21;;;;;;;21.53;11.97;;;8.60;99.90;;;9.48;100.00;98388.63;5060613;28;20472;-81
2021/04/22 00:10:52;;;;;;;19.17;10.77;;;8.50;99.90;;;9.55;100.00;98384.34;5049576;28;20486;-80
2021/04/22 00:13:27;;;;;;;18.80;10.00;;;8.60;99.90;;;9.57;100.00;98390.25;5055392;28;20493;-80
2021/04/22 00:16:00;;;;;;;17.47;9.87;;;8.70;99.90;;;9.51;100.00;98383.88;5055607;28;20492;-81
2021/04/22 00:18:29;;;;;;;15.33;9.60;;;8.70;99.90;;;9.54;100.00;98387.97;5064110;28;20484;-80
2021/04/22 00:20:57;;;;;;;16.43;9.30;;;8.70;99.90;;;9.58;100.00;98390.06;5056810;28;20453;-81
2021/04/22 00:23:28;;;;;;;17.17;8.97;;;8.70;99.90;;;9.56;100.00;98386.00;5056940;28;20847;-80
2021/04/22 00:25:56;;;;;;;16.53;8.40;;;8.70;99.90;;;9.44;100.00;98390.78;5053956;28;20544;-80
2021/04/22 00:28:24;;;;;;;18.03;8.03;;;8.50;99.90;;;9.42;100.00;98394.53;5056011;28;20452;-81
2021/04/22 00:30:52;;;;;;;15.63;8.00;;;8.50;99.90;;;9.46;100.00;98393.22;5057889;28;20483;-80
2021/04/22 00:33:25;;;;;;;17.30;7.90;;;8.60;99.90;;;9.44;100.00;98396.00;5055514;28;20485;-80
2021/04/22 00:35:54;;;;;;;15.87;7.40;;;8.50;99.90;;;9.41;100.00;98396.34;5056049;28;20879;-81
2021/04/22 00:38:22;;;;;;;21.17;7.50;;;8.60;99.90;;;9.38;100.00;98391.47;5051548;28;20465;-80
2021/04/22 00:40:53;;;;;;;12.23;7.30;;;8.50;99.90;;;9.34;100.00;98392.78;5052426;28;20523;-80
2021/04/22 00:43:23;;;;;;;15.90;7.00;;;8.40;99.90;;;9.35;100.00;98396.22;5053065;28;20488;-80
2021/04/22 00:45:51;;;;;;;13.90;7.10;;;8.50;99.90;;;9.26;100.00;98395.47;5057928;28;20461;-80
2021/04/22 00:48:24;;;;;;;17.80;7.40;;;8.50;99.90;;;9.15;100.00;98398.44;5052169;28;20953;-80
2021/04/22 00:50:56;;;;;;;15.63;7.00;;;8.30;99.90;;;9.04;100.00;98398.78;5050490;28;20556;-81
2021/04/22 00:53:25;;;;;;;14.43;7.93;;;8.10;99.90;;;8.99;100.00;98401.06;5048494;28;20492;-81
2021/04/22 00:55:55;;;;;;;15.97;7.07;;;8.10;99.90;;;9.01;100.00;98401.75;5047036;28;20758;-81
2021/04/22 00:58:23;;;;;;;14.10;8.03;;;8.20;99.90;;;9.00;100.00;98400.09;5052525;28;20457;-80
2021/04/22 01:00:57;;;;;;;12.33;7.07;;;8.20;99.90;;;8.94;100.00;98406.00;5051132;28;20449;-80
2021/04/22 01:03:27;;;;;;;21.20;7.07;;;8.10;99.90;;;8.89;100.00;98408.28;5052914;28;20468;-80
2021/04/22 01:05:59;;;;;;;17.17;7.70;;;8.00;99.90;;;8.91;100.00;98411.56;5053123;28;20456;-81
2021/04/22 01:08:27;;;;;;;16.10;7.80;;;8.10;99.90;;;8.90;100.00;98407.31;5055213;28;20537;-81
2021/04/22 01:10:56;;;;;;;13.57;7.00;;;8.20;99.90;;;8.97;100.00;98410.88;5051142;28;20539;-80
2021/04/22 01:13:24;;;;;;;17.73;7.47;;;8.20;99.90;;;9.01;100.00;98417.38;5057553;28;20955;-81
2021/04/22 01:15:52;;;;;;;12.67;7.10;;;8.20;99.90;;;8.93;100.00;98417.41;5043525;28;20469;-80
2021/04/22 01:18:19;;;;;;;16.10;7.97;;;8.10;99.90;;;8.93;100.00;98415.63;5058061;28;20538;-80
2021/04/22 01:20:50;;;;;;;15.07;7.20;;;8.20;99.90;;;9.00;100.00;98423.56;5052111;28;20468;-81
2021/04/22 01:23:19;;;;;;;17.10;7.00;;;8.20;99.90;;;8.85;100.00;98430.47;5057398;28;20508;-81
2021/04/22 01:25:50;;;;;;;15.87;6.67;;;8.00;99.90;;;8.86;100.00;98424.25;5053772;28;20456;-80
2021/04/22 01:28:23;;;;;;;13.47;6.80;;;8.10;99.90;;;8.90;100.00;98428.16;5051295;28;20501;-81
2021/04/22 01:30:53;;;;;;;13.67;6.17;;;8.10;99.90;;;8.94;100.00;98429.47;5051532;28;20461;-81
2021/04/22 01:33:25;;;;;;;17.37;7.57;;;8.10;99.90;;;8.94;100.00;98434.69;5051087;28;20486;-80
2021/04/22 01:35:59;;;;;;;19.93;6.40;;;8.10;99.90;;;8.86;100.00;98430.28;5047833;28;20493;-80
2021/04/22 01:38:30;;;;;;;17.37;7.70;;;8.00;99.90;;;8.93;100.00;98427.84;5052030;28;20855;-80
2021/04/22 01:41:00;;;;;;;15.60;6.70;;;8.10;99.90;;;8.96;100.00;98436.13;5048655;28;20468;-80
2021/04/22 01:43:29;;;;;;;17.57;6.87;;;8.10;99.90;;;9.00;100.00;98437.44;5049849;28;20497;-80
2021/04/22 01:45:57;;;;;;;22.10;7.80;;;8.10;99.90;;;8.98;100.00;98435.97;5050628;28;20796;-81
2021/04/22 01:48:27;;;;;;;10.27;5.90;;;8.10;99.90;;;8.95;100.00;98433.72;5057404;28;20465;-80
2021/04/22 01:50:55;;;;;;;17.57;7.10;;;8.00;99.90;;;8.90;100.00;98439.41;5052765;28;20839;-81
2021/04/22 01:53:23;;;;;;;9.77;5.50;;;8.00;99.90;;;8.83;100.00;98440.25;5051074;28;20483;-80
2021/04/22 01:55:53;;;;;;;15.63;5.77;;;8.00;99.90;;;8.77;100.00;98436.53;5052994;28;20480;-80
2021/04/22 01:58:25;;;;;;;11.13;6.20;;;8.00;99.90;;;8.70;100.00;98439.94;5049591;28;20801;-80
2021/04/22 02:00:57;;;;;;;10.80;5.90;;;7.90;99.90;;;8.71;100.00;98444.19;5053435;28;20540;-80
2021/04/22 02:03:26;;;;;;;13.70;6.73;;;7.90;99.90;;;8.70;100.00;98439.94;5049504;28;20516;-80
2021/04/22 02:05:54;;;;;;;15.83;5.90;;;7.80;99.90;;;8.70;100.00;98445.16;5050459;28;20457;-81
2021/04/22 02:08:22;;;;;;;10.60;5.47;;;7.80;99.90;;;8.49;100.00;98443.06;5053454;28;20457;-81
2021/04/22 02:10:51;;;;;;;13.10;5.53;;;7.60;99.90;;;8.50;100.00;98445.50;5046395;28;20469;-81
2021/04/22 02:13:22;;;;;;;23.23;6.70;;;7.60;99.90;;;8.37;100.00;98447.78;5054522;28;20461;-80
2021/04/22 02:15:50;;;;;;;17.40;6.80;;;7.40;99.90;;;8.33;100.00;98451.69;5048883;28;20461;-81
2021/04/22 02:18:19;;;;;;;16.90;7.30;;;7.40;99.90;;;8.03;100.00;98460.09;5051813;28;20618;-80
2021/04/22 02:20:47;;;;;;;13.53;5.97;;;7.00;99.90;;;8.15;100.00;98451.03;5056641;28;20463;-80
2021/04/22 02:23:18;;;;;;;21.80;6.77;;;7.20;99.90;;;8.21;100.00;98455.56;5062333;28;20464;-80
2021/04/22 02:25:47;;;;;;;25.47;5.97;;;7.30;99.90;;;8.28;100.00;98463.56;5050358;28;20812;-80
2021/04/22 02:28:17;;;;;;;14.40;6.10;;;7.40;99.90;;;8.33;100.00;98464.72;5049769;28;20548;-80
2021/04/22 02:30:46;;;;;;;9.30;5.03;;;7.40;99.90;;;8.30;100.00;98474.66;5053069;28;20506;-80
2021/04/22 02:33:17;;;;;;;26.27;6.47;;;7.40;99.90;;;8.23;100.00;98473.63;5043370;28;21008;-80
2021/04/22 02:35:48;;;;;;;9.43;5.23;;;7.30;99.90;;;8.20;100.00;98473.94;5054738;28;20457;-80
2021/04/22 02:38:17;;;;;;;12.13;5.50;;;7.30;99.90;;;8.18;100.00;98470.72;5055236;28;20483;-80
2021/04/22 02:40:47;;;;;;;15.77;6.80;;;7.30;99.90;;;8.21;100.00;98466.00;5045960;28;20461;-80
2021/04/22 02:43:19;;;;;;;18.27;6.03;;;7.40;99.90;;;8.21;100.00;98471.19;5059813;28;20484;-80
2021/04/22 02:45:50;;;;;;;19.67;6.07;;;7.30;99.90;;;8.25;100.00;98477.72;5042476;28;20465;-80
2021/04/22 02:48:18;;;;;;;15.20;4.90;;;7.40;99.90;;;8.24;100.00;98486.50;5044036;28;20506;-80
2021/04/22 02:50:48;;;;;;;11.63;5.30;;;7.30;99.90;;;8.19;100.00;98483.56;5049400;28;20469;-80
2021/04/22 02:53:16;;;;;;;12.33;4.80;;;7.30;99.90;;;8.21;99.68;98491.22;5055436;28;20487;-80
2021/04/22 02:55:45;;;;;;;16.90;5.30;;;7.30;99.90;;;8.19;99.31;98499.19;5058186;28;20464;-80
2021/04/22 02:58:24;;;;;;;20.27;5.57;;;7.30;99.90;;;8.14;99.83;98495.44;5050848;28;20986;-80
2021/04/22 03:00:53;;;;;;;9.73;4.80;;;7.20;99.90;;;8.08;99.33;98496.91;5048322;28;20461;-80
2021/04/22 03:03:21;;;;;;;9.80;4.33;;;7.10;99.90;;;8.06;98.32;98501.44;5051274;28;20507;-80
2021/04/22 03:05:49;;;;;;;9.03;4.53;;;7.30;99.90;;;8.00;98.90;98502.09;5048481;28;20448;-80
2021/04/22 03:08:17;;;;;;;11.20;4.30;;;7.20;99.90;;;7.97;98.92;98489.41;5049226;28;20468;-80
2021/04/22 03:10:45;;;;;;;13.40;4.63;;;7.10;99.90;;;7.90;98.99;98502.25;5058833;28;20479;-80
2021/04/22 03:13:13;;;;;;;14.33;4.47;;;7.00;99.90;;;7.91;99.07;98500.44;5059355;28;20488;-80
2021/04/22 03:15:42;;;;;;;11.67;5.13;;;7.10;99.90;;;7.89;98.05;98498.00;5054231;28;20493;-80
2021/04/22 03:18:10;;;;;;;8.27;4.13;;;7.00;99.90;;;7.90;98.04;98501.41;5053577;28;20553;-80
2021/04/22 03:20:39;;;;;;;9.97;4.60;;;7.00;99.90;;;7.78;97.65;98500.88;5055091;28;20465;-80
2021/04/22 03:23:08;;;;;;;12.60;4.37;;;7.00;99.90;;;7.75;98.10;98500.38;5050566;28;20476;-80
2021/04/22 03:25:36;;;;;;;10.33;4.57;;;6.90;99.90;;;7.62;97.16;98510.44;5045898;28;20460;-80
2021/04/22 03:28:04;;;;;;;9.43;3.90;;;6.70;99.90;;;7.63;97.05;98506.88;5048444;28;20468;-80
2021/04/22 03:30:34;;;;;;;14.23;4.03;;;6.70;99.90;;;7.49;95.88;98519.50;5048353;28;20460;-80
2021/04/22 03:33:03;;;;;;;10.70;3.90;;;6.60;99.90;;;7.38;95.29;98508.53;5051351;28;20464;-80
2021/04/22 03:35:31;;;;;;;8.10;3.90;;;6.60;99.80;;;7.39;95.98;98510.97;5048608;28;20550;-80
2021/04/22 03:37:59;;;;;;;11.73;4.10;;;6.60;99.90;;;7.40;95.59;98510.00;5051944;28;21026;-80
2021/04/22 03:40:27;;;;;;;9.47;4.60;;;6.60;99.90;;;7.45;95.25;98515.56;5043065;28;20474;-80
2021/04/22 03:42:55;;;;;;;12.83;3.97;;;6.60;99.90;;;7.47;95.29;98521.44;5044668;28;21001;-80
2021/04/22 03:45:25;;;;;;;11.70;3.43;;;6.60;99.90;;;7.39;95.21;98525.78;5047232;28;20440;-80
2021/04/22 03:47:54;;;;;;;7.10;3.03;;;6.50;99.90;;;7.39;95.37;98531.78;5048455;28;20465;-82
2021/04/22 03:50:23;;;;;;;12.37;5.20;;;6.50;99.90;;;7.35;94.51;98535.69;5049948;28;20463;-79
2021/04/22 03:52:51;;;;;;;12.90;4.40;;;6.50;99.90;;;7.29;95.12;98535.50;5047691;28;20453;-78
2021/04/22 03:55:20;;;;;;;16.37;4.27;;;6.40;99.90;;;7.26;95.89;98543.56;5049054;28;20500;-79
2021/04/22 03:57:49;;;;;;;10.27;3.17;;;6.30;99.90;;;7.26;95.92;98547.00;5051430;28;20506;-78
2021/04/22 04:00:21;;;;;;;11.10;3.40;;;6.30;99.90;;;7.20;95.49;98542.41;5052024;28;20448;-80
2021/04/22 04:02:49;;;;;;;10.43;3.00;;;6.30;99.90;;;7.07;94.94;98550.63;5051733;28;20459;-79
2021/04/22 04:05:17;;;;;;;9.80;3.13;;;6.20;99.90;;;7.09;95.30;98545.25;5053446;28;20530;-78
2021/04/22 04:07:46;;;;;;;6.83;3.10;;;6.30;99.90;;;6.96;95.74;98545.69;5057691;28;20461;-78
2021/04/22 04:10:14;;;;;;;10.07;3.20;;;6.10;99.90;;;6.92;95.68;98548.72;5052553;28;20468;-78
2021/04/22 04:12:42;;;;;;;10.47;2.80;;;6.00;99.90;;;6.89;95.84;98549.03;5050176;28;20479;-78
2021/04/22 04:15:11;;;;;;;10.87;2.87;;;6.10;99.90;;;6.84;96.45;98552.06;5052085;28;20492;-78
2021/04/22 04:17:39;;;;;;;8.50;2.70;;;5.90;99.90;;;6.85;96.00;98561.50;5051494;28;20541;-78
2021/04/22 04:20:10;;;;;;;16.90;5.53;;;6.00;99.90;;;6.93;94.81;98558.16;5049129;28;20465;-78
2021/04/22 04:22:38;;;;;;;6.00;2.80;;;6.00;99.60;;;6.92;94.02;98559.94;5054463;28;20481;-78
2021/04/22 04:25:10;;;;;;;6.57;3.23;;;6.00;99.40;;;6.84;92.38;98559.03;5059820;28;20873;-78
2021/04/22 04:27:38;;;;;;;24.00;9.40;;;6.10;99.10;;;6.80;92.52;98563.75;5044409;28;20733;-79
2021/04/22 04:30:10;;;;;;;12.00;2.90;;;6.00;98.80;;;6.82;92.08;98568.78;5051087;28;20473;-77
2021/04/22 04:32:38;;;;;;;11.73;2.90;;;6.10;99.00;;;6.81;93.25;98573.16;5048424;28;20476;-77
2021/04/22 04:35:08;;;;;;;13.10;2.83;;;6.00;99.20;;;6.75;92.55;98573.78;5064817;28;20925;-77
2021/04/22 04:37:35;;;;;;;15.17;3.40;;;5.90;99.10;;;6.57;92.19;98586.78;5059048;28;20444;-77
2021/04/22 04:40:04;;;;;;;6.57;2.50;;;5.60;98.90;;;6.50;92.61;98590.91;5055016;28;20502;-77
2021/04/22 04:42:33;;;;;;;5.40;2.70;;;5.60;99.20;;;6.56;93.57;98585.13;5054774;28;20476;-77
2021/04/22 04:45:01;;;;;;;9.80;3.73;;;5.60;99.40;;;6.61;92.70;98591.66;5055872;28;20441;-77
2021/04/22 04:47:28;;;;;;;6.60;2.57;;;5.70;99.20;;;6.58;92.60;98588.41;5056069;28;20437;-77
2021/04/22 04:49:56;;;;;;;13.30;2.90;;;5.60;99.40;;;6.50;93.45;98590.91;5051903;28;20976;-77
2021/04/22 04:52:24;;;;;;;10.17;3.40;;;5.60;99.60;;;6.36;95.25;98599.22;5052605;28;20445;-77
2021/04/22 04:54:51;;;;;;;7.07;1.97;;;5.40;99.90;;;6.25;96.13;98599.41;5053204;28;20497;-77
2021/04/22 04:57:19;;;;;;;4.37;2.40;;;5.20;99.90;;;6.27;96.41;98602.72;5055028;28;20441;-77
2021/04/22 04:59:47;;;;;;;11.20;2.47;;;5.30;99.90;;;6.12;97.93;98606.75;5055130;28;20467;-77
2021/04/22 05:02:15;;;;;;;10.70;2.77;;;5.10;99.90;;;6.07;98.18;98616.75;5052781;28;20848;-77
2021/04/22 05:04:43;;;;;;;10.77;2.67;;;5.00;99.90;;;5.99;98.47;98616.66;5048383;28;20445;-77
2021/04/22 05:07:10;;;;;;;8.73;2.50;;;4.90;99.90;;;6.04;98.44;98622.22;5053985;28;20450;-78
2021/04/22 05:09:38;;;;;;;6.27;2.50;;;5.10;99.90;;;6.02;99.15;98626.75;5054891;28;20511;-77
2021/04/22 05:12:07;;;;;;;14.90;2.60;;;5.00;99.90;;;5.98;99.15;98631.41;5062272;28;20444;-77
2021/04/22 05:14:35;;;;;;;5.73;2.40;;;4.90;99.90;;;5.93;99.28;98632.81;5057320;28;20972;-77
2021/04/22 05:17:03;;;;;;;7.23;2.20;;;4.90;99.90;;;5.90;100.00;98633.09;5057431;28;20473;-77
2021/04/22 05:19:36;;;;;;;10.50;2.90;;;4.80;99.90;;;5.86;100.00;98642.13;5054234;28;20499;-77
2021/04/22 05:22:04;;;;;;;8.00;2.40;;;4.80;99.90;;;5.91;100.00;98643.31;5060146;28;20444;-77
2021/04/22 05:24:31;;;;;;;11.93;3.17;;;5.00;99.90;;;6.01;99.40;98645.88;5064379;28;20506;-77
2021/04/22 05:26:59;;;;;;;10.60;2.70;;;5.00;99.90;;;5.98;99.56;98648.75;5058389;28;20441;-77
2021/04/22 05:29:26;;;;;;;4.90;2.23;;;5.00;99.90;;;6.09;99.22;98656.38;5057984;28;20440;-77
2021/04/22 05:31:54;;;;;;;11.73;2.40;;;5.10;99.90;;;6.16;97.99;98660.03;5059830;28;20502;-77
2021/04/22 05:34:23;;;;;;;11.30;2.60;;;5.20;99.90;;;6.16;97.67;98665.22;5056436;28;20496;-78
2021/04/22 05:36:50;;;;;;;6.97;2.37;;;5.20;99.90;;;6.25;96.65;98666.16;5066167;28;20778;-77
2021/04/22 05:39:20;;;;;;;8.23;2.00;;;5.30;99.90;;;6.26;96.28;98670.34;5054059;28;20862;-77
2021/04/22 05:41:47;;;;;;;11.97;2.67;;;5.30;99.90;;;6.30;96.47;98672.53;5065762;28;20517;-77
2021/04/22 05:44:14;;;;;;;13.33;2.90;;;5.40;99.90;;;6.33;95.91;98672.22;5056647;28;20501;-78
2021/04/22 05:46:44;;;;;;;12.13;3.10;;;5.50;99.80;;;6.35;95.26;98680.69;5052309;28;20854;-77
2021/04/22 05:49:12;;;;;;;4.90;2.33;;;5.40;99.50;;;6.39;94.11;98686.41;5054755;28;20445;-77
2021/04/22 05:51:42;;;;;;;10.73;2.83;;;5.50;99.30;;;6.39;93.75;98691.59;5051072;28;20465;-77
2021/04/22 05:54:11;;;;;;;7.03;2.20;;;5.50;99.30;;;6.37;93.74;98688.34;5056195;28;20489;-77
2021/04/22 05:56:40;;;;;;;8.00;2.90;;;5.50;99.40;;;6.40;93.11;98693.25;5060296;28;20447;-77
2021/04/22 05:59:07;;;;;;;14.43;3.33;;;5.50;99.00;;;6.38;92.91;98696.00;5060795;28;20900;-77
2021/04/22 06:01:35;;;;;;;11.67;2.90;;;5.50;98.80;;;6.11;94.64;98701.16;5064636;28;20440;-77
2021/04/22 06:04:03;;;;;;;5.60;2.90;;;5.20;99.60;;;6.21;94.86;98706.34;5061227;28;20505;-78
2021/04/22 06:06:31;;;;;;;8.03;2.60;;;5.30;99.50;;;6.21;93.28;98709.75;5056791;28;20452;-77
2021/04/22 06:09:00;;;;;;;12.23;3.63;;;5.30;99.00;;;6.25;93.74;98710.28;5058471;28;20464;-77
2021/04/22 06:11:27;;;;;;;6.33;2.23;;;5.30;99.20;;;6.20;93.33;98710.72;5060449;28;20574;-77
2021/04/22 06:13:55;;;;;;;6.03;2.37;;;5.30;99.10;;;6.15;93.10;98712.91;5049647;28;20496;-77
2021/04/22 06:16:23;;;;;;;10.07;2.77;;;5.20;99.40;;;6.25;93.79;98707.69;5059675;28;20491;-77
2021/04/22 06:18:51;;;;;;;7.73;2.83;;;5.40;99.50;;;6.35;93.20;98706.66;5060254;28;20941;-77
2021/04/22 06:21:19;;;;;;;10.43;2.93;;;5.50;99.20;;;6.36;91.93;98718.69;5052877;28;20445;-77
2021/04/22 06:23:47;;;;;;;12.10;2.60;;;5.60;98.70;;;6.32;92.48;98716.50;5054220;28;20543;-77
2021/04/22 06:26:17;;;;;;;6.93;2.27;;;5.60;98.70;;;6.34;91.99;98719.81;5054457;28;20494;-77
2021/04/22 06:28:45;;;;;;;6.70;2.50;;;5.60;98.50;;;6.41;90.67;98726.88;5051404;28;20457;-77
2021/04/22 06:31:13;;;;;;;7.43;2.43;;;5.70;98.50;;;6.42;91.21;98731.09;5059393;28;20444;-77
2021/04/22 06:33:40;;;;;;;9.30;2.77;;;5.60;98.30;;;6.44;90.20;98731.78;5054424;28;20444;-77
2021/04/22 06:36:10;;;;;;;5.00;2.23;;;5.60;98.10;;;6.42;89.47;98722.50;5061793;28;20499;-77
2021/04/22 06:38:37;;;;;;;12.93;3.10;;;5.60;98.10;;;6.46;89.79;98724.66;5061858;28;20448;-78
2021/04/22 06:41:05;;;;;;;30.43;3.63;;;5.70;98.20;;;6.49;88.95;98733.97;5060597;28;20443;-77
2021/04/22 06:43:33;;;;;;;13.43;3.03;;;5.70;97.90;;;6.49;88.63;98732.16;5061919;28;20486;-77
2021/04/22 06:46:01;;;;;;;11.70;3.20;;;5.70;97.70;;;6.55;88.27;98735.97;5056476;28;20452;-78
2021/04/22 06:48:29;;;;;;;13.67;2.80;;;5.70;97.60;;;6.56;87.06;98728.03;5052958;28;20459;-78
2021/04/22 06:50:57;;;;;;;22.70;3.77;;;5.70;97.40;;;6.61;87.30;98740.59;5055374;28;20488;-78
2021/04/22 06:53:25;;;;;;;10.07;4.27;;;5.80;97.30;;;6.63;87.65;98735.25;5054698;28;20803;-78
2021/04/22 06:55:53;;;;;;;9.97;3.90;;;5.80;97.80;;;6.62;87.16;98742.22;5058078;28;20553;-78
2021/04/22 06:58:20;;;;;;;8.70;2.27;;;5.80;97.30;;;6.62;86.77;98738.81;5061352;28;20452;-79
2021/04/22 07:00:48;;;;;;;15.20;3.37;;;5.80;97.30;;;6.63;85.23;98740.47;5059141;28;20449;-78
2021/04/22 07:03:16;;;;;;;23.47;10.63;;;5.80;96.70;;;6.64;84.22;98742.06;5062074;28;20448;-78
2021/04/22 07:05:44;;;;;;;12.10;3.60;;;5.80;96.30;;;6.66;83.15;98746.19;5052619;28;20515;-77
2021/04/22 07:08:11;;;;;;;15.90;2.80;;;5.80;96.30;;;6.68;82.78;98753.81;5065049;28;20437;-78
2021/04/22 07:10:39;;;;;;;41.37;17.93;;;5.90;96.20;;;6.52;79.39;98755.28;5053286;28;20457;-78
2021/04/22 07:13:07;;;;;;;14.00;5.80;;;5.70;94.90;;;6.54;80.12;98763.72;5063059;28;20483;-79
2021/04/22 07:15:35;;;;;;;78.30;35.57;;;5.80;95.40;;;6.62;80.93;98754.41;5061249;28;20492;-78
2021/04/22 07:18:05;;;;;;;38.17;14.47;;;5.80;95.60;;;6.64;81.05;98753.28;5058965;28;20967;-77
2021/04/22 07:20:33;;;;;;;22.20;8.87;;;5.90;95.70;;;6.69;81.06;98750.25;5046998;28;20445;-77
2021/04/22 07:23:02;;;;;;;12.37;2.50;;;5.90;95.60;;;6.66;78.34;98760.94;5051933;28;20447;-78
2021/04/22 07:25:33;;;;;;;16.53;2.67;;;5.90;94.40;;;6.64;79.55;98766.28;5055925;28;20451;-77
2021/04/22 07:28:02;;;;;;;9.67;3.30;;;5.90;94.90;;;6.77;78.88;98769.34;5054887;28;20441;-78
2021/04/22 07:30:30;;;;;;;9.43;4.30;;;6.10;95.10;;;6.80;78.19;98773.47;5060963;28;20939;-77
2021/04/22 07:32:58;;;;;;;26.97;12.17;;;6.10;94.90;;;6.85;77.65;98777.25;5065394;28;20440;-78
2021/04/22 07:35:27;;;;;;;27.57;10.20;;;6.10;94.30;;;6.88;75.96;98770.94;5069246;28;20488;-78
2021/04/22 07:37:54;;;;;;;10.67;4.03;;;6.20;94.00;;;6.87;75.58;98771.91;5062949;28;20468;-77
2021/04/22 07:40:25;;;;;;;9.70;2.57;;;6.10;94.00;;;6.88;76.08;98776.13;5054473;28;20464;-77
2021/04/22 07:42:53;;;;;;;1318.93;755.30;;;6.10;94.30;;;7.04;78.56;98786.72;5056180;28;20535;-78
2021/04/22 07:45:25;;;;;;;82.57;38.93;;;6.30;95.80;;;7.12;78.31;98778.16;5056031;28;20449;-78
2021/04/22 07:47:53;;;;;;;15.17;5.87;;;6.40;95.10;;;7.19;77.51;98785.25;5056995;28;20497;-77
2021/04/22 07:50:21;;;;;;;32.67;4.90;;;6.50;94.40;;;7.27;77.63;98767.13;5059085;28;20449;-78
2021/04/22 07:52:50;;;;;;;9.43;3.37;;;6.50;94.60;;;7.23;73.59;98773.59;5063605;28;20444;-78
2021/04/22 07:55:25;;;;;;;13.53;3.23;;;6.60;93.40;;;7.21;73.70;98775.53;5053952;28;20505;-77
2021/04/22 07:57:53;;;;;;;21.33;3.70;;;6.60;93.70;;;7.27;74.72;98780.13;5054831;28;20791;-78
2021/04/22 08:00:23;;;;;;;11.10;2.00;;;6.60;93.50;;;7.36;73.67;98775.81;5054216;28;20515;-78
2021/04/22 08:02:52;;;;;;;10.80;2.60;;;6.70;93.50;;;7.45;73.55;98769.72;5052333;28;20453;-78
2021/04/22 08:05:23;;;;;;;7.80;2.80;;;6.80;93.50;;;7.42;72.33;98775.22;5052849;28;20433;-78
2021/04/22 08:08:07;;;;;;;12.80;2.60;;;6.80;93.30;;;7.45;72.43;98770.56;5061040;28;20456;-78
2021/04/22 08:10:37;;;;;;;13.10;2.40;;;6.80;93.20;;;7.51;71.76;98772.56;5061544;28;20453;-79
2021/04/22 08:13:09;;;;;;;140.60;9.73;;;6.80;93.00;;;7.51;70.61;98779.53;5060692;28;20468;-78
2021/04/22 08:15:39;;;;;;;19.10;3.20;;;6.80;92.60;;;7.62;70.56;98770.69;5064253;28;20897;-79
2021/04/22 08:18:08;;;;;;;5.43;2.40;;;7.00;92.90;;;7.65;70.14;98775.59;5062687;28;20871;-79
2021/04/22 08:20:37;;;;;;;145.67;25.57;;;7.00;92.40;;;7.57;69.29;98771.13;5053508;28;20971;-79
2021/04/22 08:23:09;;;;;;;14.57;3.30;;;6.90;92.40;;;7.63;69.33;98769.72;5055135;28;20446;-79
2021/04/22 08:25:44;;;;;;;8.30;2.50;;;7.00;92.30;;;7.72;68.87;98774.00;5057907;28;20448;-77
2021/04/22 08:28:16;;;;;;;8.20;3.00;;;7.00;92.40;;;7.72;68.94;98787.03;5057121;28;20499;-76
2021/04/22 08:30:49;;;;;;;10.37;2.40;;;7.10;92.50;;;7.68;68.63;98783.91;5056240;28;20460;-77
2021/04/22 08:33:19;;;;;;;12.60;2.83;;;7.00;92.20;;;7.74;68.47;98785.91;5059701;28;20438;-77
2021/04/22 08:35:47;;;;;;;11.83;2.60;;;7.00;92.20;;;7.77;67.81;98790.00;5062807;28;21031;-78
2021/04/22 08:38:17;;;;;;;6.83;2.23;;;7.00;92.40;;;7.80;68.04;98780.13;5060656;28;20448;-78
2021/04/22 08:40:52;;;;;;;12.23;3.33;;;6.90;92.10;;;7.84;68.37;98772.81;5065679;28;20498;-77
2021/04/22 08:43:21;;;;;;;15.40;2.90;;;7.10;92.50;;;7.88;68.42;98781.97;5066511;28;20510;-78
2021/04/22 08:45:49;;;;;;;12.43;2.83;;;7.10;92.50;;;7.93;68.85;98779.72;5052810;28;20878;-77
2021/04/22 08:48:18;;;;;;;12.30;3.07;;;7.20;92.70;;;7.97;68.61;98781.03;5058038;28;20467;-78
2021/04/22 08:50:50;;;;;;;17.70;2.53;;;7.30;92.50;;;8.02;68.57;98778.78;5060511;28;20483;-78
2021/04/22 08:53:22;;;;;;;13.33;3.07;;;7.30;92.50;;;8.07;68.25;98785.19;5059078;28;20449;-77
2021/04/22 08:55:51;;;;;;;7.90;2.60;;;7.40;92.60;;;8.05;66.07;98796.75;5057648;28;20496;-77
2021/04/22 08:58:19;;;;;;;9.97;2.73;;;7.30;91.60;;;8.08;65.34;98789.44;5063183;28;20440;-77
2021/04/22 09:00:51;;;;;;;7.43;2.37;;;7.30;91.40;;;8.13;64.88;98788.97;5062902;28;20459;-77
2021/04/22 09:03:18;;;;;;;7.97;2.80;;;7.40;91.00;;;8.17;62.19;98786.84;5052636;28;20876;-77
2021/04/22 09:05:47;;;;;;;14.63;3.00;;;7.50;90.30;;;8.16;58.88;98793.84;5054870;28;20730;-78
2021/04/22 09:08:15;;;;;;;10.50;2.60;;;7.50;87.40;;;8.13;57.05;98788.97;5064365;28;20452;-77
2021/04/22 09:10:44;;;;;;;7.10;2.50;;;7.40;86.90;;;8.10;56.54;98784.88;5061277;28;20460;-77
2021/04/22 09:13:15;;;;;;;10.20;2.63;;;7.40;87.10;;;8.13;56.31;98788.97;5061534;28;20832;-78
2021/04/22 09:15:48;;;;;;;11.50;2.90;;;7.40;86.60;;;8.09;56.05;98787.63;5064291;28;20604;-78
2021/04/22 09:18:25;;;;;;;8.90;2.90;;;7.40;85.90;;;8.22;56.79;98784.63;5054437;28;20446;-78
2021/04/22 09:20:56;;;;;;;9.00;2.20;;;7.60;86.90;;;8.32;56.40;98785.38;5060317;28;20460;-77
2021/04/22 09:23:28;;;;;;;13.37;3.10;;;7.60;86.30;;;8.40;55.86;98794.03;5061931;28;20449;-78
2021/04/22 09:26:01;;;;;;;5.40;2.30;;;7.70;86.60;;;8.46;55.53;98787.41;5053013;28;20445;-78
2021/04/22 09:28:38;;;;;;;10.03;2.60;;;7.70;85.60;;;8.49;56.10;98798.34;5054319;28;20528;-78
2021/04/22 09:31:09;;;;;;;7.93;3.30;;;7.70;86.60;;;8.51;56.10;98788.56;5059190;28;20456;-77
2021/04/22 09:33:40;;;;;;;19.87;3.87;;;7.80;87.00;;;8.58;56.71;98783.53;5057117;28;20449;-78
2021/04/22 09:36:11;;;;;;;8.20;2.47;;;7.90;88.00;;;8.66;56.40;98788.78;5059464;28;20496;-77
2021/04/22 09:38:41;;;;;;;12.80;2.90;;;8.00;87.50;;;8.73;56.31;98787.19;5053647;28;20457;-77
2021/04/22 09:41:25;;;;;;;8.47;2.57;;;8.20;87.20;;;8.79;55.37;98791.78;5058877;28;20560;-77
2021/04/22 09:44:04;;;;;;;11.70;2.60;;;8.20;86.00;;;8.83;55.53;98789.66;5063812;28;20484;-78
2021/04/22 09:46:32;;;;;;;8.83;2.60;;;8.20;86.20;;;8.91;54.52;98787.09;5060825;28;20497;-78
2021/04/22 09:49:07;;;;;;;10.20;2.67;;;8.30;85.20;;;8.97;54.66;98789.06;5063966;28;20436;-78
2021/04/22 09:51:35;;;;;;;6.20;2.20;;;8.30;85.10;;;9.01;53.96;98779.97;5067621;28;20813;-78
2021/04/22 09:54:10;;;;;;;12.13;2.93;;;8.30;85.10;;;9.10;54.21;98785.03;5057544;28;20469;-77
2021/04/22 09:56:57;;;;;;;8.73;3.13;;;8.50;85.30;;;9.15;53.93;98776.72;5055770;28;20544;-77
2021/04/22 09:59:27;;;;;;;7.13;2.70;;;8.50;85.10;;;9.15;54.55;98786.34;5052066;28;21071;-78
2021/04/22 10:02:07;;;;;;;8.90;3.07;;;8.50;85.90;;;9.18;54.84;98786.84;5058981;28;20448;-78
2021/04/22 10:04:38;;;;;;;10.77;2.70;;;8.50;85.60;;;9.19;54.18;98787.66;5049629;28;20451;-78
2021/04/22 10:07:21;;;;;;;9.87;3.10;;;8.50;85.30;;;9.19;53.92;98779.84;5054689;28;20441;-77
2021/04/22 10:09:51;;;;;;;7.33;2.90;;;8.50;85.00;;;9.26;54.29;98794.69;5063773;28;20953;-77
2021/04/22 10:12:27;;;;;;;17.90;3.10;;;8.60;85.70;;;9.33;54.67;98787.88;5060719;28;20441;-78
2021/04/22 10:15:07;;;;;;;12.53;2.90;;;8.60;86.30;;;9.36;55.12;98786.72;5062035;28;20936;-78
2021/04/22 10:17:35;;;;;;;7.07;2.57;;;8.70;86.70;;;9.45;55.72;98788.34;5059734;28;20449;-78
2021/04/22 10:20:08;;;;;;;11.20;3.23;;;8.80;87.20;;;9.45;55.41;98786.56;5058232;28;20445;-78
2021/04/22 10:22:39;;;;;;;11.77;2.90;;;8.80;86.70;;;9.40;55.24;98773.19;5050617;28;20904;-78
2021/04/22 10:25:11;;;;;;;9.47;3.13;;;8.80;86.20;;;9.42;55.67;98776.44;5064522;28;20464;-78
2021/04/22 10:27:41;;;;;;;12.80;3.10;;;8.80;86.40;;;9.45;55.48;98781.34;5055325;28;20948;-78
2021/04/22 10:30:13;;;;;;;10.67;3.00;;;8.80;86.70;;;9.39;54.93;98787.22;5057479;28;20449;-78
2021/04/22 10:32:43;;;;;;;25.90;3.70;;;8.80;85.40;;;9.44;55.04;98777.09;5060438;28;20447;-78
2021/04/22 10:35:16;;;;;;;6.17;2.90;;;8.80;86.20;;;9.49;55.09;98772.22;5061613;28;21082;-78